createdAt,value
2022-09-29T00:01:44.797Z,12.40
2022-09-29T00:04:12.061Z,12.40
2022-09-29T00:06:39.038Z,11.83
2022-09-29T00:09:05.906Z,12.40
2022-09-29T00:11:32.816Z,12.13
2022-09-29T00:13:59.664Z,12.10
2022-09-29T00:16:26.653Z,12.57
2022-09-29T00:18:57.266Z,12.93
2022-09-29T00:21:24.057Z,13.47
2022-09-29T00:23:51.018Z,12.47
2022-09-29T00:26:24.722Z,12.50
2022-09-29T00:28:55.589Z,15.27
2022-09-29T00:31:23.939Z,16.37
2022-09-29T00:33:50.924Z,18.60
2022-09-29T00:36:20.142Z,16.10
2022-09-29T00:38:48.393Z,16.43
2022-09-29T00:41:18.257Z,16.50
2022-09-29T00:43:51.150Z,16.50
2022-09-29T00:46:23.709Z,14.20
2022-09-29T00:48:51.678Z,16.30
2022-09-29T00:51:19.753Z,14.40
2022-09-29T00:53:48.003Z,13.37
2022-09-29T00:56:16.389Z,13.77
2022-09-29T00:58:54.685Z,14.53
2022-09-29T01:01:26.745Z,14.47
2022-09-29T01:03:59.994Z,19.50
2022-09-29T01:06:35.667Z,16.27
2022-09-29T01:09:04.502Z,22.63
2022-09-29T01:11:32.039Z,26.63
2022-09-29T01:14:03.858Z,17.30
2022-09-29T01:16:33.155Z,15.03
2022-09-29T01:19:01.704Z,13.73
2022-09-29T01:21:54.384Z,12.60
2022-09-29T01:24:27.320Z,12.63
2022-09-29T01:27:03.101Z,12.93
2022-09-29T01:30:06.985Z,13.47
2022-09-29T01:32:33.822Z,15.77
2022-09-29T01:35:06.811Z,16.87
2022-09-29T01:37:55.156Z,16.37
2022-09-29T01:40:42.246Z,13.87
2022-09-29T01:43:23.304Z,15.10
2022-09-29T01:46:13.215Z,13.73
2022-09-29T01:48:45.564Z,13.33
2022-09-29T01:51:21.601Z,13.43
2022-09-29T01:53:51.655Z,13.50
2022-09-29T01:56:32.151Z,13.67
2022-09-29T01:59:07.073Z,14.37
2022-09-29T02:01:39.596Z,14.83
2022-09-29T02:04:44.243Z,18.90
2022-09-29T02:07:19.848Z,16.73
2022-09-29T02:09:51.099Z,19.43
2022-09-29T02:12:23.630Z,17.53
2022-09-29T02:14:53.667Z,16.70
2022-09-29T02:17:29.685Z,14.37
2022-09-29T02:19:56.775Z,16.93
2022-09-29T02:22:23.694Z,16.63
2022-09-29T02:24:54.262Z,18.37
2022-09-29T02:27:22.925Z,17.47
2022-09-29T02:29:50.071Z,16.80
2022-09-29T02:32:17.140Z,14.33
2022-09-29T02:34:46.973Z,13.23
2022-09-29T02:37:16.562Z,13.10
2022-09-29T02:40:04.785Z,12.93
2022-09-29T02:43:09.290Z,12.90
2022-09-29T02:46:00.660Z,13.90
2022-09-29T02:48:51.317Z,14.73
2022-09-29T02:51:20.211Z,13.70
2022-09-29T02:53:52.751Z,13.43
2022-09-29T02:56:56.997Z,13.47
2022-09-29T02:59:30.976Z,13.80
2022-09-29T03:01:57.988Z,14.90
2022-09-29T03:04:26.677Z,15.63
2022-09-29T03:06:54.140Z,15.50
2022-09-29T03:09:21.052Z,14.90
2022-09-29T03:11:47.950Z,14.60
2022-09-29T03:14:14.866Z,15.33
2022-09-29T03:16:43.102Z,15.70
2022-09-29T03:19:09.964Z,16.40
2022-09-29T03:21:37.134Z,15.90
2022-09-29T03:24:04.037Z,17.60
2022-09-29T03:26:30.899Z,17.30
2022-09-29T03:28:57.992Z,20.57
2022-09-29T03:31:24.947Z,18.60
2022-09-29T03:33:51.815Z,18.20
2022-09-29T03:36:18.743Z,17.53
2022-09-29T03:38:47.176Z,13.97
2022-09-29T03:41:14.277Z,13.90
2022-09-29T03:43:41.163Z,13.43
2022-09-29T03:46:08.057Z,14.50
2022-09-29T03:48:35.423Z,14.30
2022-09-29T03:51:02.451Z,13.87
2022-09-29T03:53:29.347Z,13.90
2022-09-29T03:55:56.251Z,13.60
2022-09-29T03:58:23.036Z,13.00
2022-09-29T04:00:50.101Z,13.73
2022-09-29T04:03:17.205Z,14.33
2022-09-29T04:05:48.722Z,13.43
2022-09-29T04:08:16.241Z,14.90
2022-09-29T04:10:43.220Z,13.90
2022-09-29T04:13:10.096Z,13.70
2022-09-29T04:15:36.981Z,15.27
2022-09-29T04:18:04.286Z,14.67
2022-09-29T04:20:31.530Z,15.73
2022-09-29T04:22:59.120Z,15.83
2022-09-29T04:25:25.905Z,14.20
2022-09-29T04:27:52.696Z,14.53
2022-09-29T04:30:19.814Z,14.87
2022-09-29T04:32:46.698Z,14.80
2022-09-29T04:35:13.510Z,15.33
2022-09-29T04:37:40.373Z,14.00
2022-09-29T04:40:07.528Z,14.30
2022-09-29T04:42:34.516Z,14.10
2022-09-29T04:45:01.356Z,14.70
2022-09-29T04:47:28.217Z,14.97
2022-09-29T04:49:54.972Z,14.27
2022-09-29T04:52:21.861Z,14.30
2022-09-29T04:54:48.670Z,14.17
2022-09-29T04:57:15.513Z,14.80
2022-09-29T04:59:42.277Z,15.33
2022-09-29T05:02:09.282Z,14.97
2022-09-29T05:04:36.122Z,14.53
2022-09-29T05:07:03.272Z,14.20
2022-09-29T05:09:33.326Z,14.70
2022-09-29T05:12:01.260Z,14.47
2022-09-29T05:14:28.064Z,14.67
2022-09-29T05:16:55.897Z,15.00
2022-09-29T05:19:22.723Z,15.00
2022-09-29T05:21:49.716Z,14.77
2022-09-29T05:24:17.345Z,17.17
2022-09-29T05:26:45.067Z,17.73
2022-09-29T05:29:11.881Z,16.00
2022-09-29T05:31:38.842Z,16.47
2022-09-29T05:34:05.665Z,16.33
2022-09-29T05:36:32.510Z,15.43
2022-09-29T05:38:59.327Z,15.43
2022-09-29T05:41:26.343Z,16.53
2022-09-29T05:43:54.880Z,15.50
2022-09-29T05:46:22.911Z,15.60
2022-09-29T05:48:53.849Z,16.57
2022-09-29T05:51:23.571Z,16.10
2022-09-29T05:53:51.797Z,16.07
2022-09-29T05:56:24.634Z,16.93
2022-09-29T05:58:52.196Z,16.57
2022-09-29T06:01:21.804Z,17.30
2022-09-29T06:03:49.098Z,18.37
2022-09-29T06:06:19.369Z,17.20
2022-09-29T06:08:47.510Z,19.10
2022-09-29T06:11:22.524Z,16.90
2022-09-29T06:13:51.261Z,17.93
2022-09-29T06:16:20.216Z,17.97
2022-09-29T06:18:48.160Z,19.20
2022-09-29T06:21:18.609Z,18.43
2022-09-29T06:23:45.927Z,18.73
2022-09-29T06:26:14.930Z,19.20
2022-09-29T06:28:41.955Z,18.03
2022-09-29T06:31:15.340Z,16.97
2022-09-29T06:33:43.088Z,16.07
2022-09-29T06:36:58.564Z,15.83
2022-09-29T06:39:25.949Z,15.30
2022-09-29T06:41:56.143Z,15.33
2022-09-29T06:44:26.272Z,15.77
2022-09-29T06:46:53.703Z,15.40
2022-09-29T06:49:20.858Z,15.23
2022-09-29T06:51:48.165Z,15.03
2022-09-29T06:54:17.852Z,17.40
2022-09-29T06:56:52.159Z,15.07
2022-09-29T06:59:19.414Z,15.93
2022-09-29T07:01:50.568Z,16.00
2022-09-29T07:04:20.709Z,16.60
2022-09-29T07:06:48.974Z,19.20
2022-09-29T07:09:16.583Z,16.20
2022-09-29T07:11:48.846Z,17.00
2022-09-29T07:14:16.989Z,16.20
2022-09-29T07:16:44.514Z,15.37
2022-09-29T07:19:11.371Z,15.00
2022-09-29T07:21:38.215Z,14.60
2022-09-29T07:24:05.279Z,15.40
2022-09-29T07:26:32.218Z,14.37
2022-09-29T07:28:59.076Z,14.17
2022-09-29T07:31:26.009Z,15.73
2022-09-29T07:33:53.185Z,14.60
2022-09-29T07:36:21.066Z,14.57
2022-09-29T07:38:52.152Z,14.20
2022-09-29T07:41:21.739Z,14.47
2022-09-29T07:43:48.565Z,14.90
2022-09-29T07:46:15.598Z,14.83
2022-09-29T07:48:43.102Z,14.10
2022-09-29T07:51:15.517Z,14.50
2022-09-29T07:53:42.838Z,14.83
2022-09-29T07:56:15.280Z,14.50
2022-09-29T07:58:42.477Z,15.13
2022-09-29T08:01:12.755Z,14.37
2022-09-29T08:03:41.709Z,14.30
2022-09-29T08:06:10.055Z,14.20
2022-09-29T08:08:37.933Z,14.10
2022-09-29T08:11:24.368Z,15.17
2022-09-29T08:13:55.029Z,14.43
2022-09-29T08:16:22.242Z,15.07
2022-09-29T08:18:50.374Z,15.77
2022-09-29T08:21:17.232Z,15.27
2022-09-29T08:23:44.549Z,14.70
2022-09-29T08:26:17.202Z,14.50
2022-09-29T08:28:45.482Z,15.57
2022-09-29T08:31:21.460Z,14.87
2022-09-29T08:33:52.180Z,14.67
2022-09-29T08:36:20.937Z,14.40
2022-09-29T08:38:50.777Z,19.40
2022-09-29T08:41:29.811Z,19.80
2022-09-29T08:44:02.169Z,20.20
2022-09-29T08:46:37.360Z,18.73
2022-09-29T08:49:11.235Z,17.97
2022-09-29T08:51:44.440Z,17.20
2022-09-29T08:54:46.142Z,16.90
2022-09-29T08:57:20.401Z,17.20
2022-09-29T08:59:54.813Z,16.10
2022-09-29T09:02:33.717Z,15.97
2022-09-29T09:05:06.370Z,17.60
2022-09-29T09:08:08.786Z,17.40
2022-09-29T09:10:49.862Z,15.70
2022-09-29T09:13:43.817Z,16.37
2022-09-29T09:16:42.520Z,16.30
2022-09-29T09:19:33.604Z,17.37
2022-09-29T09:22:21.049Z,17.90
2022-09-29T09:24:56.329Z,17.63
2022-09-29T09:27:30.518Z,17.10
2022-09-29T09:30:18.628Z,17.10
2022-09-29T09:32:59.459Z,17.77
2022-09-29T09:35:30.687Z,17.33
2022-09-29T09:38:03.042Z,17.50
2022-09-29T09:40:39.822Z,17.13
2022-09-29T09:43:26.773Z,18.50
2022-09-29T09:46:00.909Z,17.37
2022-09-29T09:48:41.324Z,16.87
2022-09-29T09:51:54.215Z,16.23
2022-09-29T09:54:29.590Z,14.47
2022-09-29T09:56:56.540Z,14.83
2022-09-29T09:59:50.416Z,15.20
2022-09-29T10:02:22.072Z,15.57
2022-09-29T10:04:51.998Z,14.30
2022-09-29T10:07:24.572Z,15.77
2022-09-29T10:09:52.488Z,16.53
2022-09-29T10:12:22.109Z,16.90
2022-09-29T10:14:59.675Z,15.60
2022-09-29T10:17:33.365Z,15.07
2022-09-29T10:20:04.162Z,15.20
2022-09-29T10:22:31.989Z,15.23
2022-09-29T10:25:16.171Z,14.73
2022-09-29T10:27:49.415Z,14.20
2022-09-29T10:30:44.260Z,14.30
2022-09-29T10:33:17.160Z,14.07
2022-09-29T10:35:45.520Z,15.83
2022-09-29T10:38:24.020Z,15.67
2022-09-29T10:40:59.362Z,16.03
2022-09-29T10:43:32.625Z,17.40
2022-09-29T10:45:59.838Z,16.27
2022-09-29T10:48:27.527Z,17.03
2022-09-29T10:53:35.931Z,17.03
2022-09-29T10:56:22.494Z,17.27
2022-09-29T10:59:00.391Z,16.70
2022-09-29T11:01:33.602Z,16.23
2022-09-29T11:04:04.279Z,18.10
2022-09-29T11:06:43.021Z,16.50
2022-09-29T11:09:13.633Z,16.20
2022-09-29T11:11:57.927Z,15.97
2022-09-29T11:14:40.168Z,16.73
2022-09-29T11:17:39.907Z,15.20
2022-09-29T11:20:14.830Z,14.60
2022-09-29T11:23:28.437Z,14.43
2022-09-29T11:26:13.042Z,15.33
2022-09-29T11:28:45.248Z,14.87
2022-09-29T11:31:18.108Z,15.13
2022-09-29T11:33:54.069Z,13.83
2022-09-29T11:36:51.333Z,13.87
2022-09-29T11:39:26.984Z,13.30
2022-09-29T11:42:31.016Z,13.03
2022-09-29T11:45:01.708Z,14.10
2022-09-29T11:47:28.792Z,13.93
2022-09-29T11:50:20.103Z,13.43
2022-09-29T11:53:18.741Z,14.33
2022-09-29T11:56:11.078Z,14.13
2022-09-29T11:58:58.049Z,15.50
2022-09-29T12:01:46.591Z,16.50
2022-09-29T12:04:48.146Z,13.97
2022-09-29T12:07:58.036Z,14.50
2022-09-29T12:10:49.789Z,15.37
2022-09-29T12:13:36.677Z,14.80
2022-09-29T12:16:11.665Z,15.13
2022-09-29T12:19:13.211Z,15.13
2022-09-29T12:21:50.637Z,14.73
2022-09-29T12:24:41.343Z,16.07
2022-09-29T12:27:16.535Z,15.90
2022-09-29T12:30:09.781Z,15.27
2022-09-29T12:32:47.836Z,16.57
2022-09-29T12:35:34.884Z,15.23
2022-09-29T12:38:16.668Z,15.53
2022-09-29T12:40:51.705Z,14.03
2022-09-29T12:43:35.304Z,13.93
2022-09-29T12:46:43.966Z,14.50
2022-09-29T12:49:43.071Z,15.87
2022-09-29T12:52:19.056Z,15.97
2022-09-29T12:54:55.796Z,14.93
2022-09-29T12:57:31.252Z,18.17
2022-09-29T13:00:14.190Z,17.50
2022-09-29T13:02:46.617Z,18.40
2022-09-29T13:05:34.392Z,19.33
2022-09-29T13:08:40.352Z,19.37
2022-09-29T13:11:35.095Z,18.07
2022-09-29T13:14:16.187Z,18.37
2022-09-29T13:17:01.697Z,17.33
2022-09-29T13:19:57.235Z,16.93
2022-09-29T13:22:36.782Z,15.07
2022-09-29T13:25:22.913Z,19.90
2022-09-29T13:27:52.803Z,15.90
2022-09-29T13:30:33.292Z,16.53
2022-09-29T13:33:10.619Z,18.13
2022-09-29T13:35:49.161Z,18.43
2022-09-29T13:38:24.839Z,17.83
2022-09-29T13:41:39.751Z,19.10
2022-09-29T13:44:22.605Z,20.27
2022-09-29T13:46:50.219Z,18.80
2022-09-29T13:49:26.181Z,18.53
2022-09-29T13:51:56.351Z,16.27
2022-09-29T13:54:52.438Z,17.90
2022-09-29T13:57:27.970Z,17.50
2022-09-29T13:59:55.154Z,16.47
2022-09-29T14:02:39.031Z,17.70
2022-09-29T14:05:27.176Z,16.03
2022-09-29T14:07:57.520Z,19.87
2022-09-29T14:10:36.225Z,20.37
2022-09-29T14:13:15.850Z,20.17
2022-09-29T14:16:00.817Z,20.53
2022-09-29T14:18:41.500Z,19.77
2022-09-29T14:21:14.873Z,20.87
2022-09-29T14:23:45.007Z,19.20
2022-09-29T14:26:42.649Z,21.67
2022-09-29T14:29:41.104Z,20.70
2022-09-29T14:32:20.363Z,20.17
2022-09-29T14:34:48.815Z,20.90
2022-09-29T14:37:20.398Z,21.30
2022-09-29T14:40:07.355Z,21.63
2022-09-29T14:42:34.956Z,20.37
2022-09-29T14:45:25.417Z,19.63
2022-09-29T14:48:41.113Z,19.63
2022-09-29T14:51:43.729Z,20.07
2022-09-29T14:54:23.650Z,20.37
2022-09-29T14:57:19.995Z,19.60
2022-09-29T15:00:20.746Z,20.33
2022-09-29T15:02:59.809Z,20.17
2022-09-29T15:05:37.746Z,20.57
2022-09-29T15:08:31.711Z,20.60
2022-09-29T15:10:58.635Z,21.43
2022-09-29T15:13:33.193Z,20.93
2022-09-29T15:16:11.069Z,21.17
2022-09-29T15:18:39.209Z,22.20
2022-09-29T15:21:12.471Z,21.37
2022-09-29T15:23:49.033Z,20.80
2022-09-29T15:26:17.876Z,21.47
2022-09-29T15:28:45.130Z,19.97
2022-09-29T15:31:19.654Z,20.83
2022-09-29T15:33:48.022Z,21.23
2022-09-29T15:36:22.163Z,21.33
2022-09-29T15:38:54.353Z,21.00
2022-09-29T15:41:29.099Z,20.17
2022-09-29T15:44:01.539Z,21.83
2022-09-29T15:46:39.332Z,21.83
2022-09-29T15:49:19.994Z,22.13
2022-09-29T15:52:02.645Z,21.27
2022-09-29T15:54:34.449Z,21.00
2022-09-29T15:57:20.446Z,21.10
2022-09-29T15:59:55.749Z,21.17
2022-09-29T16:02:28.277Z,21.53
2022-09-29T16:05:02.067Z,21.00
2022-09-29T16:07:36.232Z,21.23
2022-09-29T16:10:13.950Z,20.87
2022-09-29T16:12:53.225Z,21.07
2022-09-29T16:15:32.907Z,21.63
2022-09-29T16:18:03.229Z,21.50
2022-09-29T16:20:33.387Z,20.83
2022-09-29T16:23:15.996Z,21.07
2022-09-29T16:25:42.903Z,21.63
2022-09-29T16:28:37.721Z,22.23
2022-09-29T16:31:10.385Z,21.60
2022-09-29T16:33:45.481Z,21.80
2022-09-29T16:36:21.182Z,22.23
2022-09-29T16:38:51.628Z,21.33
2022-09-29T16:41:35.403Z,21.27
2022-09-29T16:44:12.852Z,22.00
2022-09-29T16:46:54.966Z,22.20
2022-09-29T16:49:26.743Z,20.30
2022-09-29T16:51:57.261Z,21.03
2022-09-29T16:54:29.253Z,21.20
2022-09-29T16:57:25.751Z,20.93
2022-09-29T16:59:57.695Z,22.07
2022-09-29T17:02:26.030Z,20.90
2022-09-29T17:04:54.529Z,21.40
2022-09-29T17:07:23.936Z,22.03
2022-09-29T17:09:56.688Z,21.70
2022-09-29T17:12:24.579Z,20.87
2022-09-29T17:14:51.362Z,21.57
2022-09-29T17:17:23.880Z,19.87
2022-09-29T17:19:52.401Z,21.30
2022-09-29T17:22:21.776Z,21.70
2022-09-29T17:24:48.567Z,21.43
2022-09-29T17:27:33.680Z,21.80
2022-09-29T17:30:00.520Z,21.13
2022-09-29T17:32:27.298Z,20.73
2022-09-29T17:34:54.075Z,20.80
2022-09-29T17:37:20.853Z,22.13
2022-09-29T17:39:47.862Z,20.50
2022-09-29T17:42:15.207Z,21.53
2022-09-29T17:44:44.711Z,21.20
2022-09-29T17:47:37.371Z,20.33
2022-09-29T17:50:16.656Z,19.43
2022-09-29T17:52:43.545Z,20.23
2022-09-29T17:55:12.033Z,20.60
2022-09-29T17:57:39.486Z,21.00
2022-09-29T18:00:21.228Z,20.70
2022-09-29T18:02:50.463Z,20.00
2022-09-29T18:05:23.816Z,19.83
2022-09-29T18:07:55.212Z,20.37
2022-09-29T18:10:29.957Z,21.90
2022-09-29T18:12:58.162Z,22.93
2022-09-29T18:15:25.643Z,21.67
2022-09-29T18:17:58.884Z,22.07
2022-09-29T18:20:29.842Z,23.43
2022-09-29T18:23:00.513Z,23.13
2022-09-29T18:25:29.904Z,22.60
2022-09-29T18:27:57.416Z,21.87
2022-09-29T18:30:40.072Z,21.80
2022-09-29T18:33:15.122Z,19.77
2022-09-29T18:35:43.891Z,20.37
2022-09-29T18:38:11.192Z,21.53
2022-09-29T18:40:39.472Z,21.83
2022-09-29T18:43:07.256Z,23.77
2022-09-29T18:45:41.900Z,23.40
2022-09-29T18:48:13.056Z,23.10
2022-09-29T18:50:45.575Z,22.13
2022-09-29T18:53:15.337Z,21.83
2022-09-29T18:55:42.688Z,22.57
2022-09-29T18:58:14.956Z,23.07
2022-09-29T19:00:45.396Z,23.90
2022-09-29T19:03:12.480Z,22.77
2022-09-29T19:05:42.207Z,23.43
2022-09-29T19:08:11.007Z,21.47
2022-09-29T19:10:38.400Z,22.33
2022-09-29T19:13:13.851Z,23.30
2022-09-29T19:15:42.700Z,23.00
2022-09-29T19:18:14.571Z,22.27
2022-09-29T19:20:41.448Z,23.00
2022-09-29T19:23:08.306Z,22.93
2022-09-29T19:25:38.109Z,22.73
2022-09-29T19:28:06.019Z,23.43
2022-09-29T19:30:35.914Z,23.23
2022-09-29T19:33:02.929Z,22.77
2022-09-29T19:35:29.695Z,23.43
2022-09-29T19:37:59.197Z,23.60
2022-09-29T19:40:29.285Z,22.60
2022-09-29T19:42:58.567Z,22.33
2022-09-29T19:45:26.238Z,21.33
2022-09-29T19:47:57.086Z,21.47
2022-09-29T19:50:43.482Z,22.77
2022-09-29T19:53:10.598Z,22.33
2022-09-29T19:55:40.386Z,21.93
2022-09-29T19:58:07.831Z,20.57
2022-09-29T20:00:35.397Z,19.87
2022-09-29T20:03:02.473Z,20.80
2022-09-29T20:05:29.323Z,21.27
2022-09-29T20:07:56.207Z,21.27
2022-09-29T20:10:28.567Z,22.47
2022-09-29T20:12:57.099Z,19.13
2022-09-29T20:15:24.598Z,21.83
2022-09-29T20:17:52.184Z,22.50
2022-09-29T20:20:22.728Z,21.93
2022-09-29T20:22:50.160Z,21.43
2022-09-29T20:25:17.238Z,21.03
2022-09-29T20:27:44.123Z,21.00
2022-09-29T20:30:11.256Z,21.90
2022-09-29T20:32:38.409Z,19.43
2022-09-29T20:35:05.720Z,21.87
2022-09-29T20:37:32.650Z,20.93
2022-09-29T20:40:00.434Z,19.47
2022-09-29T20:42:27.516Z,21.00
2022-09-29T20:44:56.327Z,21.47
2022-09-29T20:47:25.125Z,21.07
2022-09-29T20:49:54.236Z,21.00
2022-09-29T20:52:21.205Z,21.10
2022-09-29T20:54:48.253Z,22.70
2022-09-29T20:57:18.408Z,18.60
2022-09-29T20:59:45.297Z,20.97
2022-09-29T21:02:13.559Z,19.70
2022-09-29T21:04:42.457Z,20.30
2022-09-29T21:07:29.275Z,21.60
2022-09-29T21:09:56.192Z,21.87
2022-09-29T21:12:23.112Z,20.50
2022-09-29T21:14:49.936Z,21.40
2022-09-29T21:17:16.803Z,21.83
2022-09-29T21:19:43.708Z,22.40
2022-09-29T21:22:10.725Z,20.90
2022-09-29T21:24:39.291Z,21.27
2022-09-29T21:27:07.600Z,22.50
2022-09-29T21:29:34.519Z,23.87
2022-09-29T21:32:02.127Z,22.17
2022-09-29T21:34:29.292Z,20.50
2022-09-29T21:36:56.317Z,21.33
2022-09-29T21:39:23.146Z,19.50
2022-09-29T21:41:49.932Z,19.70
2022-09-29T21:44:19.422Z,20.00
2022-09-29T21:46:47.118Z,17.33
2022-09-29T21:49:16.716Z,18.97
2022-09-29T21:51:46.647Z,20.47
2022-09-29T21:54:19.483Z,20.97
2022-09-29T21:56:47.101Z,21.30
2022-09-29T21:59:16.337Z,19.43
2022-09-29T22:01:44.191Z,21.00
2022-09-29T22:04:12.213Z,18.30
2022-09-29T22:06:40.009Z,18.90
2022-09-29T22:09:08.535Z,18.27
2022-09-29T22:11:38.861Z,19.20
2022-09-29T22:14:06.330Z,17.80
2022-09-29T22:16:35.288Z,18.70
2022-09-29T22:19:23.301Z,19.47
2022-09-29T22:21:51.797Z,20.47
2022-09-29T22:24:18.620Z,18.43
2022-09-29T22:26:45.468Z,17.23
2022-09-29T22:29:13.372Z,18.17
2022-09-29T22:31:40.835Z,19.13
2022-09-29T22:34:08.538Z,16.43
2022-09-29T22:36:35.857Z,19.33
2022-09-29T22:39:04.753Z,17.87
2022-09-29T22:41:31.732Z,17.57
2022-09-29T22:43:59.643Z,18.27
2022-09-29T22:46:28.245Z,18.80
2022-09-29T22:48:55.399Z,19.03
2022-09-29T22:51:22.267Z,17.30
2022-09-29T22:53:49.144Z,18.93
2022-09-29T22:56:20.664Z,17.20
2022-09-29T22:58:49.319Z,16.20
2022-09-29T23:01:17.961Z,16.67
2022-09-29T23:03:45.868Z,17.20
2022-09-29T23:06:13.954Z,17.70
2022-09-29T23:08:41.547Z,15.43
2022-09-29T23:11:14.425Z,15.97
2022-09-29T23:13:42.437Z,17.27
2022-09-29T23:16:12.849Z,18.70
2022-09-29T23:18:45.594Z,19.10
2022-09-29T23:21:17.838Z,19.90
2022-09-29T23:23:45.555Z,19.30
2022-09-29T23:26:12.563Z,19.47
2022-09-29T23:28:39.448Z,19.73
2022-09-29T23:31:07.499Z,21.03
2022-09-29T23:33:34.900Z,19.83
2022-09-29T23:36:15.562Z,17.90
2022-09-29T23:39:03.316Z,21.50
2022-09-29T23:41:31.256Z,20.50
2022-09-29T23:44:00.937Z,19.10
2022-09-29T23:46:31.677Z,18.80
2022-09-29T23:49:00.052Z,20.47
2022-09-29T23:51:33.430Z,20.87
2022-09-29T23:54:00.427Z,20.37
2022-09-29T23:56:27.363Z,20.63
2022-09-29T23:58:54.526Z,21.47
